Latest Weather Observations for Launceston Airport

IDT60801

Issued at 2:31 pm EST Wednesday 8 July 2015 (issued every 30 minutes, with the page automatically refreshed every 10 minutes)

About weather observations | Map of weather stations | Latest weather observations for TAS | Other Formats
Station Details ID: 091311 Name: LAUNCESTON AIRPORT Lat: -41.55 Lon: 147.21 Height: 166.9 m
Data from the previous 72 hours. | See also: Recent months at Launceston Airport
Date/Time
EST
Temp
°C
App
Temp
°C
Dew
Point
Rel
Hum
%
Delta-T
°C
Wind Press
QNH
hPa
Press
MSL
hPa
Rain
since 9 am
mm
Dir
 
Spd
km/h
Gust
km/h
Spd
kts
Gust
kts
08/02:30pm 7.9 5.1 3.2 72 2.0 E 7 9 4 5 1027.5 1028.0 0.0
08/02:00pm 7.2 3.6 2.7 73 1.9 NE 11 13 6 7 1027.6 1028.1 0.0
08/01:30pm 7.5 4.9 3.0 73 1.9 ESE 6 9 3 5 1027.7 1028.2 0.0
08/01:00pm 7.3 4.6 2.4 71 2.0 SSE 6 7 3 4 1028.0 1028.5 0.0
08/12:30pm 6.9 4.2 2.4 73 1.9 SW 6 7 3 4 1028.3 1028.8 0.0
08/12:00pm 5.4 2.5 1.3 75 1.6 S 6 9 3 5 1028.6 1029.1 0.0
08/11:30am 4.3 1.3 1.0 79 1.3 SSE 6 9 3 5 1028.9 1029.4 0.0
08/11:00am 3.3 -0.3 0.9 84 0.9 SSE 9 11 5 6 1029.2 1029.7 0.0
08/10:30am 2.3 -1.3 0.5 88 0.7 S 9 13 5 7 1029.5 1030.0 0.0
08/10:00am 0.9 -2.8 -0.1 93 0.4 SSE 9 11 5 6 1029.5 1030.0 0.0
08/09:30am 0.1 -3.3 -0.5 96 0.2 S 7 9 4 5 1029.5 1030.0 0.0
08/09:03am -0.9 -4.4 -1.3 97 0.1 SSW 7 9 4 5 1029.4 1029.9 0.0
08/09:00am -1.1 -4.6 -1.5 97 0.1 SSW 7 9 4 5 1029.4 1029.9 0.2
08/08:40am -1.9 -6.3 -2.3 97 0.1 SSW 11 13 6 7 1029.4 1029.9 0.2
08/08:30am -2.0 -6.0 -2.4 97 0.0 SSW 9 11 5 6 1029.4 1029.9 0.2
08/08:00am -2.8 -6.5 -3.3 96 0.0 SW 7 13 4 7 1029.2 1029.7 0.2
08/07:30am -2.4 -6.5 -2.8 97 0.0 S 9 13 5 7 1029.1 1029.6 0.2
08/07:00am -2.3 -6.7 -2.7 97 0.0 SSW 11 13 6 7 1028.8 1029.3 0.2
08/06:30am -2.0 -6.4 -2.4 97 0.0 SSW 11 13 6 7 1028.5 1029.0 0.2
08/06:02am -2.1 -6.1 -2.5 97 0.0 S 9 11 5 6 1028.3 1028.8 0.2
08/06:00am -2.1 -6.1 -2.5 97 0.0 S 9 11 5 6 1028.3 1028.8 0.2
08/05:45am -2.3 -6.0 -2.7 97 0.0 S 7 9 4 5 1028.2 1028.7 0.2
08/05:30am -2.7 -6.2 -3.2 96 0.0 S 6 9 3 5 1028.2 1028.7 0.2
08/05:28am -2.7 -6.4 -3.2 96 0.0 S 7 9 4 5 1028.2 1028.7 0.2
08/05:09am -2.5 -6.2 -3.0 96 0.1 SSE 7 9 4 5 1028.2 1028.7 0.2
08/05:00am -3.0 -6.8 -3.7 95 0.1 S 7 11 4 6 1028.2 1028.7 0.2
08/04:30am -2.6 -6.3 -3.3 95 0.1 S 7 9 4 5 1028.2 1028.7 0.2
08/04:00am -1.2 -5.5 -1.9 95 0.2 SSW 11 13 6 7 1028.1 1028.6 0.2
08/03:30am -1.1 -4.5 -1.7 96 0.2 SSW 6 9 3 5 1028.2 1028.7 0.2
08/03:00am -1.5 -5.5 -2.1 96 0.1 SSW 9 13 5 7 1028.2 1028.7 0.2
08/02:30am -1.7 -5.7 -2.4 95 0.2 SSW 9 11 5 6 1028.1 1028.6 0.2
08/02:00am -0.9 -4.4 -1.6 95 0.2 S 7 9 4 5 1028.1 1028.6 0.2
08/01:30am -1.6 -5.0 -2.4 94 0.2 SSE 6 7 3 4 1028.0 1028.5 0.2
08/01:00am -0.9 -4.4 -1.7 94 0.2 S 7 9 4 5 1027.9 1028.4 0.2
08/12:30am -0.8 -4.3 -1.6 94 0.2 SSW 7 9 4 5 1027.8 1028.3 0.2
08/12:00am -0.9 -4.9 -1.9 93 0.3 SSW 9 11 5 6 1027.9 1028.4 0.2
 
Date/Time
EST
Temp
°C
App
Temp
°C
Dew
Point
Rel
Hum
%
Delta-T
°C
Wind Press
QNH
hPa
Press
MSL
hPa
Rain
since 9 am
mm
Dir
 
Spd
km/h
Gust
km/h
Spd
kts
Gust
kts
07/11:30pm -0.5 -4.8 -1.5 93 0.3 SSW 11 15 6 8 1027.9 1028.4 0.2
07/11:00pm 0.1 -4.9 -0.9 93 0.4 SSW 15 17 8 9 1027.8 1028.3 0.2
07/10:30pm 0.2 -4.0 -0.9 92 0.4 SSW 11 15 6 8 1027.6 1028.1 0.2
07/10:00pm 0.6 -4.0 -0.7 91 0.5 S 13 15 7 8 1027.5 1028.0 0.2
07/09:30pm 0.8 -3.0 -0.8 89 0.6 S 9 13 5 7 1027.5 1028.0 0.2
07/09:00pm 1.5 -2.2 -0.3 88 0.7 SSE 9 13 5 7 1027.3 1027.8 0.2
07/08:30pm 1.8 -3.0 -0.1 87 0.7 S 15 17 8 9 1027.2 1027.7 0.2
07/08:00pm 2.4 -2.0 0.1 85 0.9 S 13 17 7 9 1027.1 1027.6 0.2
07/07:30pm 2.5 -2.0 -0.3 82 1.0 S 13 17 7 9 1026.6 1027.0 0.2
07/07:00pm 3.3 -1.5 0.2 80 1.2 S 15 19 8 10 1026.4 1026.8 0.2
07/06:30pm 3.3 -1.2 0.0 79 1.2 S 13 17 7 9 1026.3 1026.7 0.2
07/06:00pm 3.3 -1.2 -0.2 78 1.3 S 13 13 7 7 1026.0 1026.4 0.2
07/05:30pm 3.6 -0.9 0.0 77 1.4 SSE 13 15 7 8 1025.8 1026.2 0.2
07/05:00pm 4.7 0.3 0.5 74 1.6 S 13 17 7 9 1025.6 1026.0 0.2
07/04:30pm 6.3 1.6 0.8 68 2.2 SSE 15 24 8 13 1025.4 1025.8 0.2
07/04:00pm 7.0 1.9 0.9 65 2.4 SSE 17 22 9 12 1025.2 1025.6 0.2
07/03:30pm 7.5 2.0 0.7 62 2.7 SSE 19 24 10 13 1025.0 1025.4 0.2
07/03:00pm 7.8 2.2 1.4 64 2.6 SSE 20 24 11 13 1024.7 1025.1 0.2
07/02:30pm 8.2 3.2 1.4 62 2.8 SSE 17 24 9 13 1024.6 1025.0 0.2
07/02:00pm 8.1 2.5 1.0 61 2.9 SSE 20 24 11 13 1024.6 1025.0 0.2
07/01:30pm 7.9 1.6 1.3 63 2.7 SSE 24 30 13 16 1024.6 1025.0 0.2
07/01:00pm 7.7 2.2 1.8 66 2.4 SSE 20 28 11 15 1024.7 1025.1 0.2
07/12:30pm 6.9 1.6 1.6 69 2.2 SSE 19 24 10 13 1025.0 1025.4 0.2
07/12:00pm 6.5 1.1 1.4 70 2.0 SSE 19 26 10 14 1025.4 1025.8 0.2
07/11:30am 5.9 0.0 1.6 74 1.7 SE 22 28 12 15 1025.7 1026.1 0.2
07/11:00am 5.6 0.6 1.5 75 1.6 SE 17 22 9 12 1025.7 1026.1 0.2
07/10:30am 4.8 -0.2 1.5 79 1.3 SSE 17 20 9 11 1025.7 1026.1 0.2
07/10:00am 4.1 -0.2 1.3 82 1.1 SSE 13 19 7 10 1025.4 1025.8 0.2
07/09:30am 3.0 -1.4 0.6 84 0.9 SSE 13 17 7 9 1025.0 1025.4 0.2
07/09:00am 1.7 -3.2 -0.4 86 0.8 S 15 19 8 10 1024.8 1025.2 0.2
07/08:30am 0.9 -3.7 -0.7 89 0.6 S 13 15 7 8 1024.5 1024.9 0.0
07/08:00am -0.2 -5.7 -1.8 89 0.5 S 17 19 9 10 1024.2 1024.7 0.0
07/07:30am -0.2 -6.0 -1.5 91 0.4 S 19 20 10 11 1024.0 1024.5 0.0
07/07:00am -0.7 -5.4 -2.0 91 0.4 S 13 15 7 8 1023.5 1024.0 0.0
07/06:30am -0.6 -5.7 -1.9 91 0.4 SSE 15 19 8 10 1023.0 1023.5 0.0
07/06:00am -0.8 -6.3 -1.9 92 0.3 SSE 17 19 9 10 1022.7 1023.2 0.0
07/05:30am -1.0 -5.7 -2.0 93 0.3 SSE 13 15 7 8 1022.3 1022.8 0.0
07/05:00am -0.6 -6.0 -1.7 92 0.4 SSE 17 17 9 9 1022.0 1022.5 0.0
07/04:30am 0.0 -5.0 -1.3 91 0.5 SSE 15 19 8 10 1021.8 1022.3 0.0
07/04:00am -0.1 -5.1 -1.4 91 0.5 S 15 17 8 9 1021.6 1022.0 0.0
07/03:30am 0.0 -4.6 -1.3 91 0.5 S 13 15 7 8 1021.7 1022.2 0.0
07/03:00am 0.0 -4.6 -1.3 91 0.5 S 13 15 7 8 1021.7 1022.2 0.0
07/02:30am -0.2 -5.3 -1.6 90 0.5 S 15 17 8 9 1021.6 1022.0 0.0
07/02:00am -0.2 -4.9 -1.6 90 0.5 S 13 15 7 8 1021.3 1021.7 0.0
07/01:30am 0.1 -4.5 -1.3 90 0.5 S 13 15 7 8 1021.0 1021.4 0.0
07/01:00am 0.1 -4.2 -1.6 88 0.6 S 11 13 6 7 1020.9 1021.3 0.0
07/12:30am 0.2 -4.5 -1.5 88 0.6 SSE 13 15 7 8 1021.0 1021.4 0.0
07/12:00am 0.6 -4.4 -1.0 89 0.6 SSE 15 15 8 8 1020.8 1021.2 0.0
 
Date/Time
EST
Temp
°C
App
Temp
°C
Dew
Point
Rel
Hum
%
Delta-T
°C
Wind Press
QNH
hPa
Press
MSL
hPa
Rain
since 9 am
mm
Dir
 
Spd
km/h
Gust
km/h
Spd
kts
Gust
kts
06/11:30pm 0.4 -4.2 -1.2 89 0.6 SSE 13 15 7 8 1020.9 1021.3 0.0
06/11:00pm 0.6 -4.0 -1.0 89 0.6 SSE 13 15 7 8 1020.7 1021.1 0.0
06/10:30pm 0.5 -4.5 -1.3 88 0.7 SSE 15 17 8 9 1020.6 1021.0 0.0
06/10:00pm 1.2 -4.1 -0.7 87 0.7 SSE 17 20 9 11 1020.5 1020.9 0.0
06/09:30pm 1.7 -3.9 -0.1 88 0.7 SSE 19 22 10 12 1020.3 1020.7 0.0
06/09:00pm 1.5 -3.8 -0.4 87 0.7 SSE 17 22 9 12 1020.0 1020.4 0.0
06/08:30pm 1.9 -3.7 -0.2 86 0.8 SSE 19 22 10 12 1019.7 1020.1 0.0
06/08:00pm 2.4 -3.4 -0.2 83 1.0 SSE 20 24 11 13 1019.3 1019.7 0.0
06/07:30pm 2.6 -3.2 0.2 84 0.9 SSE 20 26 11 14 1019.0 1019.4 0.0
06/07:00pm 3.2 -2.5 0.3 81 1.1 SSE 20 28 11 15 1018.7 1019.1 0.0
06/06:30pm 3.1 -2.5 0.0 80 1.2 SSE 19 22 10 12 1018.0 1018.5 0.0
06/06:00pm 4.5 -1.0 0.8 77 1.4 SE 19 24 10 13 1017.6 1018.1 0.0
06/05:30pm 4.1 -1.7 0.1 75 1.5 SSE 20 24 11 13 1017.1 1017.6 0.0
06/05:00pm 4.6 -0.6 0.0 72 1.8 SE 17 20 9 11 1016.7 1017.1 0.0
06/04:30pm 6.3 0.1 0.0 64 2.5 SSE 22 32 12 17 1016.4 1016.8 0.0
06/04:00pm 6.8 -0.1 0.0 62 2.7 SSE 26 35 14 19 1016.1 1016.5 0.0
06/03:30pm 7.7 1.2 0.0 58 3.0 SSE 24 33 13 18 1015.8 1016.2 0.0
06/03:00pm 7.9 1.1 0.9 61 2.8 SE 26 32 14 17 1015.6 1016.0 0.0
06/02:30pm 8.1 1.0 1.3 62 2.8 SSE 28 33 15 18 1015.3 1015.7 0.0
06/02:00pm 8.0 0.8 0.7 60 2.9 SSE 28 35 15 19 1015.2 1015.6 0.0
06/01:30pm 8.0 0.5 1.0 61 2.8 SSE 30 39 16 21 1015.3 1015.7 0.0
06/01:00pm 7.5 -0.6 0.9 63 2.7 SSE 33 43 18 23 1015.2 1015.6 0.0
06/12:30pm 7.6 -0.3 2.5 70 2.1 SSE 33 39 18 21 1015.2 1015.6 0.0
06/12:00pm 7.1 -0.8 2.2 71 2.0 SE 33 43 18 23 1015.3 1015.7 0.0
06/11:30am 6.4 -1.5 2.1 74 1.8 SE 33 41 18 22 1015.4 1015.8 0.0
06/11:00am 6.8 -1.4 2.9 76 1.6 SE 35 41 19 22 1015.6 1016.0 0.0
06/10:30am 5.6 -1.7 2.6 81 1.2 SSE 30 37 16 20 1015.7 1016.1 0.0
06/10:00am 5.4 -1.5 2.6 82 1.2 SSE 28 35 15 19 1015.4 1015.8 0.0
06/09:59am 5.4 -1.5 2.8 83 1.1 SSE 28 35 15 19 1015.4 1015.8 0.0
06/09:49am 5.3 -1.6 2.7 83 1.1 SSE 28 37 15 20 1015.4 1015.8 0.0
06/09:30am 5.3 -1.6 2.7 83 1.1 SSE 28 35 15 19 1015.3 1015.7 0.0
06/09:00am 5.2 -1.2 3.2 87 0.8 SSE 26 33 14 18 1015.1 1015.5 9.8
06/08:30am 5.1 -1.3 3.3 88 0.8 SSE 26 33 14 18 1014.8 1015.2 9.8
06/08:00am 5.1 -0.9 3.6 90 0.6 SSE 24 32 13 17 1014.5 1014.9 9.8
06/07:41am 5.1 -0.8 3.8 91 0.6 SSE 24 32 13 17 1014.3 1014.7 9.8
06/07:30am 5.2 -0.7 3.9 91 0.6 SSE 24 33 13 18 1014.2 1014.6 9.8
06/07:25am 5.2 -1.1 3.9 91 0.6 SSE 26 32 14 17 1014.2 1014.6 9.8
06/07:00am 5.3 -0.6 4.0 91 0.6 SSE 24 30 13 16 1013.9 1014.3 9.6
06/06:49am 5.4 -0.4 4.2 92 0.5 SSE 24 32 13 17 1013.7 1014.1 9.6
06/06:30am 5.3 -0.5 4.4 94 0.4 SSE 24 30 13 16 1013.6 1014.0 9.6
06/06:00am 5.3 -1.3 4.4 94 0.4 SSE 28 35 15 19 1013.5 1013.9 9.6
06/05:53am 5.4 -1.2 4.4 93 0.4 SSE 28 37 15 20 1013.5 1013.9 9.6
06/05:30am 5.5 -0.3 4.3 92 0.5 SSE 24 30 13 16 1013.4 1013.8 9.6
06/05:00am 5.6 0.2 4.4 92 0.5 SSE 22 28 12 15 1013.3 1013.7 9.6
06/04:49am 5.6 0.5 4.2 91 0.6 SSE 20 26 11 14 1013.2 1013.6 9.6
06/04:30am 5.7 0.3 4.3 91 0.6 SSE 22 28 12 15 1013.2 1013.6 9.6
06/04:00am 5.6 0.5 4.2 91 0.6 SSE 20 28 11 15 1013.0 1013.4 9.6
06/03:30am 5.6 1.1 4.4 92 0.5 SSE 17 22 9 12 1013.0 1013.4 9.6
06/03:17am 5.6 0.8 4.6 93 0.4 SSE 19 24 10 13 1013.1 1013.5 9.6
06/03:00am 5.5 0.7 4.6 94 0.4 SSE 19 24 10 13 1013.0 1013.4 9.6
06/02:30am 5.7 1.7 4.8 94 0.4 SSE 15 20 8 11 1013.3 1013.7 9.4
06/02:00am 5.8 2.2 5.1 95 0.3 SSE 13 19 7 10 1013.2 1013.6 9.0
06/01:30am 5.9 1.6 5.2 95 0.3 SSE 17 20 9 11 1013.2 1013.6 8.6
06/01:00am 5.9 1.6 5.2 95 0.3 S 17 22 9 12 1013.2 1013.6 8.0
06/12:30am 6.0 0.7 5.1 94 0.4 SSE 22 28 12 15 1013.3 1013.7 7.2
06/12:00am 6.2 1.6 5.5 95 0.3 SSE 19 24 10 13 1013.6 1014.0 7.2
 
Date/Time
EST
Temp
°C
App
Temp
°C
Dew
Point
Rel
Hum
%
Delta-T
°C
Wind Press
QNH
hPa
Press
MSL
hPa
Rain
since 9 am
mm
Dir
 
Spd
km/h
Gust
km/h
Spd
kts
Gust
kts
05/11:30pm 6.3 2.1 5.6 95 0.3 SSE 17 20 9 11 1014.0 1014.4 6.2
05/11:00pm 6.5 2.3 5.8 95 0.3 S 17 20 9 11 1014.1 1014.5 4.8
05/10:30pm 6.6 2.8 5.9 95 0.3 S 15 19 8 10 1013.9 1014.3 3.8
05/10:00pm 6.9 3.6 6.2 95 0.3 S 13 17 7 9 1013.9 1014.3 3.2
05/09:45pm 7.1 4.2 6.5 96 0.3 S 11 17 6 9 1013.9 1014.3 3.0
05/09:30pm 7.2 3.9 6.6 96 0.3 S 13 15 7 8 1013.9 1014.3 2.6
05/09:00pm 7.3 4.1 6.7 96 0.3 S 13 17 7 9 1013.9 1014.3 2.6
05/08:41pm 7.3 3.2 6.4 94 0.4 S 17 24 9 13 1013.9 1014.3 2.4
05/08:30pm 7.4 3.7 6.3 93 0.5 S 15 19 8 10 1013.8 1014.2 2.2
05/08:00pm 7.6 4.8 6.9 95 0.3 S 11 13 6 7 1013.5 1013.9 2.2
05/07:30pm 7.7 4.9 7.0 95 0.3 S 11 13 6 7 1013.5 1013.9 2.0
05/07:00pm 7.7 4.9 7.0 95 0.3 S 11 13 6 7 1013.4 1013.8 2.0
05/06:30pm 7.9 5.9 7.3 96 0.3 S 7 9 4 5 1013.2 1013.6 2.0
05/06:00pm 7.9 5.6 7.3 96 0.3 SSW 9 9 5 5 1013.4 1013.8 1.6
05/05:36pm 7.9 5.2 7.3 96 0.3 S 11 15 6 8 1013.2 1013.6 1.6
05/05:30pm 7.9 5.6 7.3 96 0.3 S 9 15 5 8 1013.1 1013.5 1.6
05/05:00pm 8.0 5.3 7.2 95 0.4 S 11 13 6 7 1013.0 1013.4 1.2
05/04:49pm 8.0 6.0 7.2 95 0.4 SSE 7 9 4 5 1013.0 1013.4 1.2
05/04:30pm 8.1 7.5 7.3 95 0.4 CALM 0 6 0 3 1012.9 1013.3 1.2
05/04:00pm 8.0 5.6 7.2 95 0.4 S 9 13 5 7 1013.0 1013.4 1.2
05/03:30pm 8.0 5.2 7.1 94 0.4 SW 11 15 6 8 1013.0 1013.4 1.2
05/03:00pm 8.7 6.8 7.6 93 0.5 SW 7 9 4 5 1012.5 1012.9 1.2
05/02:56pm 8.7 6.8 7.6 93 0.5 SW 7 9 4 5 1012.6 1013.0 1.2
05/02:41pm 8.7 8.1 7.6 93 0.5 CALM 0 6 0 3 1012.5 1012.9 1.2

Other Formats:

Comma delimited format used in spreadsheet applications
http://www.bom.gov.au/fwo/IDT60801/IDT60801.95966.axf

JavaScript Object Notation format (JSON) in row-major order
http://www.bom.gov.au/fwo/IDT60801/IDT60801.95966.json